sensor_id;sensor_type;location;lat;lon;timestamp;pressure;altitude;pressure_sealevel;temperature;humidity
15444;BME280;7822;48.146;11.576;2023-12-07T00:00:26;95297.84;;;15.18;65.88
15444;BME280;7822;48.146;11.576;2023-12-07T00:02:53;95297.84;;;15.18;65.87
15444;BME280;7822;48.146;11.576;2023-12-07T00:05:22;95302.28;;;15.18;65.92
15444;BME280;7822;48.146;11.576;2023-12-07T00:07:50;95299.66;;;15.18;65.95
15444;BME280;7822;48.146;11.576;2023-12-07T00:10:17;95300.47;;;15.18;65.81
15444;BME280;7822;48.146;11.576;2023-12-07T00:12:45;95296.22;;;15.17;65.83
15444;BME280;7822;48.146;11.576;2023-12-07T00:15:12;95297.84;;;15.18;65.77
15444;BME280;7822;48.146;11.576;2023-12-07T00:17:40;95294.44;;;15.18;65.78
15444;BME280;7822;48.146;11.576;2023-12-07T00:20:08;95290.84;;;15.19;65.61
15444;BME280;7822;48.146;11.576;2023-12-07T00:22:37;95293.47;;;15.19;65.36
15444;BME280;7822;48.146;11.576;2023-12-07T00:25:05;95292.63;;;15.18;65.75
15444;BME280;7822;48.146;11.576;2023-12-07T00:27:32;95291.69;;;15.19;65.71
15444;BME280;7822;48.146;11.576;2023-12-07T00:30:00;95290.69;;;15.20;65.66
15444;BME280;7822;48.146;11.576;2023-12-07T00:32:27;95294.44;;;15.18;65.74
15444;BME280;7822;48.146;11.576;2023-12-07T00:34:55;95300.34;;;15.20;65.45
15444;BME280;7822;48.146;11.576;2023-12-07T00:37:23;95300.34;;;15.20;65.60
15444;BME280;7822;48.146;11.576;2023-12-07T00:39:52;95302.13;;;15.19;65.80
15444;BME280;7822;48.146;11.576;2023-12-07T00:42:19;95307.34;;;15.19;65.77
15444;BME280;7822;48.146;11.576;2023-12-07T00:44:47;95309.13;;;15.19;65.61
15444;BME280;7822;48.146;11.576;2023-12-07T00:47:15;95309.13;;;15.19;65.74
15444;BME280;7822;48.146;11.576;2023-12-07T00:49:42;95316.16;;;15.18;65.53
15444;BME280;7822;48.146;11.576;2023-12-07T00:52:10;95320.56;;;15.18;65.62
15444;BME280;7822;48.146;11.576;2023-12-07T00:54:37;95315.19;;;15.19;65.48
15444;BME280;7822;48.146;11.576;2023-12-07T00:57:07;95324.00;;;15.18;65.78
15444;BME280;7822;48.146;11.576;2023-12-07T00:59:34;95316.31;;;15.17;65.79
15444;BME280;7822;48.146;11.576;2023-12-07T01:02:03;95325.81;;;15.18;65.65
15444;BME280;7822;48.146;11.576;2023-12-07T01:04:31;95333.66;;;15.18;65.85
15444;BME280;7822;48.146;11.576;2023-12-07T01:06:58;95325.94;;;15.16;65.84
15444;BME280;7822;48.146;11.576;2023-12-07T01:09:26;95336.38;;;15.16;65.74
15444;BME280;7822;48.146;11.576;2023-12-07T01:11:54;95326.75;;;15.17;65.86
15444;BME280;7822;48.146;11.576;2023-12-07T01:14:25;95332.00;;;15.17;65.67
15444;BME280;7822;48.146;11.576;2023-12-07T01:16:53;95333.78;;;15.16;65.84
15444;BME280;7822;48.146;11.576;2023-12-07T01:19:20;95334.75;;;15.15;65.75
15444;BME280;7822;48.146;11.576;2023-12-07T01:21:48;95331.16;;;15.16;65.87
15444;BME280;7822;48.146;11.576;2023-12-07T01:24:16;95336.38;;;15.16;65.88
15444;BME280;7822;48.146;11.576;2023-12-07T01:26:43;95339.81;;;15.17;65.63
15444;BME280;7822;48.146;11.576;2023-12-07T01:29:11;95344.22;;;15.16;65.97
15444;BME280;7822;48.146;11.576;2023-12-07T01:31:41;95352.88;;;15.17;65.80
15444;BME280;7822;48.146;11.576;2023-12-07T01:34:09;95357.28;;;15.16;65.56
15444;BME280;7822;48.146;11.576;2023-12-07T01:36:36;95359.06;;;15.16;65.95
15444;BME280;7822;48.146;11.576;2023-12-07T01:39:04;95367.75;;;15.16;65.97
15444;BME280;7822;48.146;11.576;2023-12-07T01:41:33;95359.06;;;15.16;65.75
15444;BME280;7822;48.146;11.576;2023-12-07T01:44:00;95361.69;;;15.16;65.88
15444;BME280;7822;48.146;11.576;2023-12-07T01:46:28;95361.69;;;15.16;66.15
15444;BME280;7822;48.146;11.576;2023-12-07T01:48:58;95352.06;;;15.16;65.77
15444;BME280;7822;48.146;11.576;2023-12-07T01:51:25;95362.50;;;15.16;65.90
15444;BME280;7822;48.146;11.576;2023-12-07T01:53:53;95366.91;;;15.16;65.84
15444;BME280;7822;48.146;11.576;2023-12-07T01:56:21;95372.13;;;15.16;65.88
15444;BME280;7822;48.146;11.576;2023-12-07T01:58:50;95373.78;;;15.17;65.91
15444;BME280;7822;48.146;11.576;2023-12-07T02:01:18;95379.03;;;15.17;65.67
15444;BME280;7822;48.146;11.576;2023-12-07T02:03:46;95377.25;;;15.17;65.64
15444;BME280;7822;48.146;11.576;2023-12-07T02:06:15;95379.03;;;15.17;65.75
15444;BME280;7822;48.146;11.576;2023-12-07T02:08:43;95379.84;;;15.17;65.63
15444;BME280;7822;48.146;11.576;2023-12-07T02:11:09;95381.47;;;15.18;65.81
15444;BME280;7822;48.146;11.576;2023-12-07T02:13:37;95392.09;;;15.17;65.71
15444;BME280;7822;48.146;11.576;2023-12-07T02:16:07;95391.13;;;15.18;65.67
15444;BME280;7822;48.146;11.576;2023-12-07T02:18:38;95396.38;;;15.18;65.60
15444;BME280;7822;48.146;11.576;2023-12-07T02:21:11;95390.31;;;15.17;65.74
15444;BME280;7822;48.146;11.576;2023-12-07T02:23:42;95398.16;;;15.17;65.73
15444;BME280;7822;48.146;11.576;2023-12-07T02:26:18;95400.75;;;15.17;65.62
15444;BME280;7822;48.146;11.576;2023-12-07T02:28:48;95399.94;;;15.17;65.73
15444;BME280;7822;48.146;11.576;2023-12-07T02:31:15;95400.75;;;15.17;65.52
15444;BME280;7822;48.146;11.576;2023-12-07T02:33:43;95402.53;;;15.17;65.77
15444;BME280;7822;48.146;11.576;2023-12-07T02:36:11;95398.97;;;15.18;65.76
15444;BME280;7822;48.146;11.576;2023-12-07T02:38:40;95410.38;;;15.17;65.85
15444;BME280;7822;48.146;11.576;2023-12-07T02:41:08;95397.31;;;15.17;65.81
15444;BME280;7822;48.146;11.576;2023-12-07T02:43:37;95404.31;;;15.16;65.85
15444;BME280;7822;48.146;11.576;2023-12-07T02:46:06;95406.09;;;15.16;65.88
15444;BME280;7822;48.146;11.576;2023-12-07T02:48:34;95409.72;;;15.15;65.77
15444;BME280;7822;48.146;11.576;2023-12-07T02:51:01;95412.16;;;15.16;65.85
15444;BME280;7822;48.146;11.576;2023-12-07T02:53:29;95402.69;;;15.15;65.74
15444;BME280;7822;48.146;11.576;2023-12-07T02:55:56;95406.09;;;15.16;65.89
15444;BME280;7822;48.146;11.576;2023-12-07T02:58:24;95404.47;;;15.15;65.64
15444;BME280;7822;48.146;11.576;2023-12-07T03:00:51;95413.94;;;15.16;65.87
15444;BME280;7822;48.146;11.576;2023-12-07T03:03:20;95413.16;;;15.15;65.79
15444;BME280;7822;48.146;11.576;2023-12-07T03:05:48;95414.94;;;15.15;65.67
15444;BME280;7822;48.146;11.576;2023-12-07T03:08:15;95417.53;;;15.15;65.92
15444;BME280;7822;48.146;11.576;2023-12-07T03:10:43;95420.16;;;15.15;65.81
15444;BME280;7822;48.146;11.576;2023-12-07T03:13:10;95426.22;;;15.15;65.87
15444;BME280;7822;48.146;11.576;2023-12-07T03:15:38;95418.38;;;15.15;65.87
15444;BME280;7822;48.146;11.576;2023-12-07T03:18:05;95428.00;;;15.15;65.92
15444;BME280;7822;48.146;11.576;2023-12-07T03:20:35;95420.16;;;15.15;65.92
15444;BME280;7822;48.146;11.576;2023-12-07T03:23:02;95421.78;;;15.16;65.78
15444;BME280;7822;48.146;11.576;2023-12-07T03:25:30;95414.94;;;15.15;65.93
15444;BME280;7822;48.146;11.576;2023-12-07T03:27:58;95421.00;;;15.15;65.98
15444;BME280;7822;48.146;11.576;2023-12-07T03:30:26;95421.00;;;15.15;65.79
15444;BME280;7822;48.146;11.576;2023-12-07T03:32:53;95419.34;;;15.14;65.82
15444;BME280;7822;48.146;11.576;2023-12-07T03:35:21;95433.22;;;15.15;65.94
15444;BME280;7822;48.146;11.576;2023-12-07T03:37:49;95420.16;;;15.15;65.91
15444;BME280;7822;48.146;11.576;2023-12-07T03:40:17;95429.63;;;15.16;65.96
15444;BME280;7822;48.146;11.576;2023-12-07T03:42:45;95421.00;;;15.15;65.67
15444;BME280;7822;48.146;11.576;2023-12-07T03:45:22;95422.78;;;15.15;65.70
15444;BME280;7822;48.146;11.576;2023-12-07T03:47:49;95421.78;;;15.16;65.83
15444;BME280;7822;48.146;11.576;2023-12-07T03:50:17;95418.38;;;15.15;65.79
15444;BME280;7822;48.146;11.576;2023-12-07T03:52:44;95426.22;;;15.15;65.67
15444;BME280;7822;48.146;11.576;2023-12-07T03:55:13;95434.06;;;15.15;65.78
15444;BME280;7822;48.146;11.576;2023-12-07T03:57:41;95427.84;;;15.16;65.75
15444;BME280;7822;48.146;11.576;2023-12-07T04:00:10;95426.06;;;15.17;65.61
15444;BME280;7822;48.146;11.576;2023-12-07T04:02:38;95421.78;;;15.16;65.71
15444;BME280;7822;48.146;11.576;2023-12-07T04:05:06;95427.84;;;15.16;65.76
15444;BME280;7822;48.146;11.576;2023-12-07T04:07:33;95428.69;;;15.17;65.67
15444;BME280;7822;48.146;11.576;2023-12-07T04:10:01;95426.06;;;15.17;65.61
15444;BME280;7822;48.146;11.576;2023-12-07T04:12:33;95426.91;;;15.17;65.83
15444;BME280;7822;48.146;11.576;2023-12-07T04:15:00;95429.50;;;15.17;65.77
15444;BME280;7822;48.146;11.576;2023-12-07T04:17:28;95430.47;;;15.16;65.53
15444;BME280;7822;48.146;11.576;2023-12-07T04:19:56;95431.28;;;15.17;65.73
15444;BME280;7822;48.146;11.576;2023-12-07T04:22:23;95434.06;;;15.15;65.75
15444;BME280;7822;48.146;11.576;2023-12-07T04:24:51;95440.09;;;15.16;65.65
15444;BME280;7822;48.146;11.576;2023-12-07T04:27:19;95441.75;;;15.17;65.92
15444;BME280;7822;48.146;11.576;2023-12-07T04:29:48;95440.91;;;15.16;66.05
15444;BME280;7822;48.146;11.576;2023-12-07T04:32:16;95443.53;;;15.16;65.62
15444;BME280;7822;48.146;11.576;2023-12-07T04:34:43;95451.38;;;15.16;65.69
15444;BME280;7822;48.146;11.576;2023-12-07T04:37:11;95452.34;;;15.15;65.58
15444;BME280;7822;48.146;11.576;2023-12-07T04:39:38;95455.75;;;15.16;65.67
15444;BME280;7822;48.146;11.576;2023-12-07T04:42:06;95453.16;;;15.16;65.64
15444;BME280;7822;48.146;11.576;2023-12-07T04:44:33;95460.97;;;15.16;65.90
15444;BME280;7822;48.146;11.576;2023-12-07T04:47:03;95467.03;;;15.16;65.70
15444;BME280;7822;48.146;11.576;2023-12-07T04:49:30;95468.03;;;15.15;65.91
15444;BME280;7822;48.146;11.576;2023-12-07T04:51:58;95465.41;;;15.15;65.79
15444;BME280;7822;48.146;11.576;2023-12-07T04:54:25;95465.41;;;15.15;65.94
15444;BME280;7822;48.146;11.576;2023-12-07T04:56:53;95460.97;;;15.16;65.80
15444;BME280;7822;48.146;11.576;2023-12-07T04:59:21;95461.97;;;15.15;65.89
15444;BME280;7822;48.146;11.576;2023-12-07T05:01:48;95467.19;;;15.15;65.69
15444;BME280;7822;48.146;11.576;2023-12-07T05:04:18;95469.81;;;15.15;65.77
15444;BME280;7822;48.146;11.576;2023-12-07T05:06:45;95463.75;;;15.14;65.84
15444;BME280;7822;48.146;11.576;2023-12-07T05:09:13;95460.97;;;15.16;65.67
15444;BME280;7822;48.146;11.576;2023-12-07T05:11:41;95453.31;;;15.14;65.96
15444;BME280;7822;48.146;11.576;2023-12-07T05:14:11;95461.81;;;15.16;65.63
15444;BME280;7822;48.146;11.576;2023-12-07T05:16:38;95457.56;;;15.15;65.95
15444;BME280;7822;48.146;11.576;2023-12-07T05:19:06;95460.97;;;15.16;65.79
15444;BME280;7822;48.146;11.576;2023-12-07T05:21:35;95460.97;;;15.16;65.69
15444;BME280;7822;48.146;11.576;2023-12-07T05:24:05;95458.38;;;15.16;65.89
15444;BME280;7822;48.146;11.576;2023-12-07T05:26:32;95459.19;;;15.16;65.97
15444;BME280;7822;48.146;11.576;2023-12-07T05:29:01;95461.81;;;15.16;65.70
15444;BME280;7822;48.146;11.576;2023-12-07T05:31:29;95453.16;;;15.16;65.63
15444;BME280;7822;48.146;11.576;2023-12-07T05:33:56;95460.19;;;15.15;65.77
15444;BME280;7822;48.146;11.576;2023-12-07T05:36:24;95447.13;;;15.15;65.77
15444;BME280;7822;48.146;11.576;2023-12-07T05:38:54;95453.16;;;15.16;65.72
15444;BME280;7822;48.146;11.576;2023-12-07T05:41:21;95450.53;;;15.16;65.58
15444;BME280;7822;48.146;11.576;2023-12-07T05:43:49;95446.97;;;15.17;65.69
15444;BME280;7822;48.146;11.576;2023-12-07T05:46:17;95446.81;;;15.18;65.54
15444;BME280;7822;48.146;11.576;2023-12-07T05:48:45;95447.78;;;15.17;65.46
15444;BME280;7822;48.146;11.576;2023-12-07T05:51:13;95455.47;;;15.19;65.58
15444;BME280;7822;48.146;11.576;2023-12-07T05:53:41;95449.31;;;15.20;65.60
15444;BME280;7822;48.146;11.576;2023-12-07T05:56:10;95446.81;;;15.18;65.64
15444;BME280;7822;48.146;11.576;2023-12-07T05:58:38;95456.31;;;15.19;65.56
15444;BME280;7822;48.146;11.576;2023-12-07T06:01:05;95449.31;;;15.20;65.66
15444;BME280;7822;48.146;11.576;2023-12-07T06:03:34;95446.69;;;15.20;65.52
15444;BME280;7822;48.146;11.576;2023-12-07T06:06:02;95451.09;;;15.19;65.64
15444;BME280;7822;48.146;11.576;2023-12-07T06:08:29;95448.47;;;15.19;65.68
15444;BME280;7822;48.146;11.576;2023-12-07T06:10:57;95443.25;;;15.19;65.47
15444;BME280;7822;48.146;11.576;2023-12-07T06:13:25;95452.72;;;15.20;65.47
15444;BME280;7822;48.146;11.576;2023-12-07T06:15:53;95443.25;;;15.19;65.68
15444;BME280;7822;48.146;11.576;2023-12-07T06:18:21;95449.44;;;15.18;65.55
15444;BME280;7822;48.146;11.576;2023-12-07T06:20:48;95458.09;;;15.19;65.59
15444;BME280;7822;48.146;11.576;2023-12-07T06:23:16;95453.69;;;15.19;65.50
15444;BME280;7822;48.146;11.576;2023-12-07T06:25:44;95452.72;;;15.20;65.55
15444;BME280;7822;48.146;11.576;2023-12-07T06:28:11;95455.47;;;15.19;65.46
15444;BME280;7822;48.146;11.576;2023-12-07T06:30:40;95450.25;;;15.19;65.46
15444;BME280;7822;48.146;11.576;2023-12-07T06:33:08;95462.38;;;15.20;65.51
15444;BME280;7822;48.146;11.576;2023-12-07T06:35:36;95458.09;;;15.19;65.40
15444;BME280;7822;48.146;11.576;2023-12-07T06:38:05;95462.38;;;15.20;65.39
15444;BME280;7822;48.146;11.576;2023-12-07T06:40:32;95464.97;;;15.20;65.38
15444;BME280;7822;48.146;11.576;2023-12-07T06:43:00;95468.41;;;15.20;65.44
15444;BME280;7822;48.146;11.576;2023-12-07T06:45:27;95469.22;;;15.21;65.46
15444;BME280;7822;48.146;11.576;2023-12-07T06:47:56;95468.41;;;15.20;65.24
15444;BME280;7822;48.146;11.576;2023-12-07T06:50:24;95471.00;;;15.20;65.20
15444;BME280;7822;48.146;11.576;2023-12-07T06:52:51;95464.16;;;15.19;65.25
15444;BME280;7822;48.146;11.576;2023-12-07T06:55:19;95466.75;;;15.19;65.31
15444;BME280;7822;48.146;11.576;2023-12-07T06:57:46;95466.75;;;15.19;65.40
15444;BME280;7822;48.146;11.576;2023-12-07T07:00:14;95464.97;;;15.20;65.33
15444;BME280;7822;48.146;11.576;2023-12-07T07:02:43;95482.44;;;15.19;64.95
15444;BME280;7822;48.146;11.576;2023-12-07T07:05:13;95472.00;;;15.19;65.19
15444;BME280;7822;48.146;11.576;2023-12-07T07:07:40;95471.00;;;15.20;65.45
15444;BME280;7822;48.146;11.576;2023-12-07T07:10:08;95476.22;;;15.20;65.37
15444;BME280;7822;48.146;11.576;2023-12-07T07:12:39;95467.72;;;15.18;65.65
15444;BME280;7822;48.146;11.576;2023-12-07T07:15:07;95472.00;;;15.19;65.61
15444;BME280;7822;48.146;11.576;2023-12-07T07:17:34;95470.22;;;15.20;65.56
15444;BME280;7822;48.146;11.576;2023-12-07T07:20:02;95469.38;;;15.19;65.57
15444;BME280;7822;48.146;11.576;2023-12-07T07:22:31;95468.56;;;15.19;65.61
15444;BME280;7822;48.146;11.576;2023-12-07T07:25:00;95472.66;;;15.21;65.57
15444;BME280;7822;48.146;11.576;2023-12-07T07:27:29;95475.44;;;15.20;65.70
15444;BME280;7822;48.146;11.576;2023-12-07T07:29:56;95481.47;;;15.20;65.35
15444;BME280;7822;48.146;11.576;2023-12-07T07:32:24;95488.34;;;15.21;65.68
15444;BME280;7822;48.146;11.576;2023-12-07T07:34:51;95486.56;;;15.22;65.50
15444;BME280;7822;48.146;11.576;2023-12-07T07:37:20;95482.28;;;15.21;65.54
15444;BME280;7822;48.146;11.576;2023-12-07T07:39:50;95480.50;;;15.21;65.44
15444;BME280;7822;48.146;11.576;2023-12-07T07:42:17;95478.84;;;15.20;65.37
15444;BME280;7822;48.146;11.576;2023-12-07T07:44:45;95483.13;;;15.21;65.59
15444;BME280;7822;48.146;11.576;2023-12-07T07:47:12;95483.13;;;15.21;65.48
15444;BME280;7822;48.146;11.576;2023-12-07T07:49:40;95483.94;;;15.22;65.66
15444;BME280;7822;48.146;11.576;2023-12-07T07:52:07;95483.13;;;15.21;65.70
15444;BME280;7822;48.146;11.576;2023-12-07T07:54:35;95486.56;;;15.22;65.48
15444;BME280;7822;48.146;11.576;2023-12-07T07:57:04;95478.84;;;15.20;65.57
15444;BME280;7822;48.146;11.576;2023-12-07T07:59:32;95483.28;;;15.20;65.64
15444;BME280;7822;48.146;11.576;2023-12-07T08:02:00;95484.91;;;15.21;65.57
15444;BME280;7822;48.146;11.576;2023-12-07T08:04:27;95477.91;;;15.21;65.70
15444;BME280;7822;48.146;11.576;2023-12-07T08:06:55;95478.72;;;15.22;65.55
15444;BME280;7822;48.146;11.576;2023-12-07T08:09:22;95475.28;;;15.21;65.47
15444;BME280;7822;48.146;11.576;2023-12-07T08:11:50;95470.06;;;15.21;65.49
15444;BME280;7822;48.146;11.576;2023-12-07T08:14:19;95480.50;;;15.21;65.62
15444;BME280;7822;48.146;11.576;2023-12-07T08:16:46;95477.91;;;15.21;65.66
15444;BME280;7822;48.146;11.576;2023-12-07T08:19:14;95471.84;;;15.21;65.45
15444;BME280;7822;48.146;11.576;2023-12-07T08:21:41;95470.22;;;15.20;65.52
15444;BME280;7822;48.146;11.576;2023-12-07T08:24:09;95471.84;;;15.21;65.62
15444;BME280;7822;48.146;11.576;2023-12-07T08:26:39;95474.44;;;15.21;65.71
15444;BME280;7822;48.146;11.576;2023-12-07T08:29:07;95471.84;;;15.21;65.65
15444;BME280;7822;48.146;11.576;2023-12-07T08:31:37;95473.50;;;15.22;65.61
15444;BME280;7822;48.146;11.576;2023-12-07T08:34:05;95471.00;;;15.20;65.61
15444;BME280;7822;48.146;11.576;2023-12-07T08:36:33;95468.41;;;15.20;65.60
15444;BME280;7822;48.146;11.576;2023-12-07T08:39:00;95470.22;;;15.20;65.62
15444;BME280;7822;48.146;11.576;2023-12-07T08:41:28;95473.63;;;15.20;65.52
15444;BME280;7822;48.146;11.576;2023-12-07T08:43:55;95479.69;;;15.21;65.53
15444;BME280;7822;48.146;11.576;2023-12-07T08:46:23;95466.59;;;15.21;65.24
15444;BME280;7822;48.146;11.576;2023-12-07T08:48:52;95476.22;;;15.20;65.38
15444;BME280;7822;48.146;11.576;2023-12-07T08:51:20;95473.63;;;15.20;65.35
15444;BME280;7822;48.146;11.576;2023-12-07T08:53:48;95478.06;;;15.20;65.37
15444;BME280;7822;48.146;11.576;2023-12-07T08:56:19;95472.81;;;15.20;65.20
15444;BME280;7822;48.146;11.576;2023-12-07T08:58:47;95465.78;;;15.20;65.50
15444;BME280;7822;48.146;11.576;2023-12-07T09:01:14;95467.59;;;15.20;65.47
15444;BME280;7822;48.146;11.576;2023-12-07T09:03:58;95471.00;;;15.20;65.49
15444;BME280;7822;48.146;11.576;2023-12-07T09:06:26;95477.06;;;15.21;65.44
15444;BME280;7822;48.146;11.576;2023-12-07T09:08:54;95468.41;;;15.20;65.02
15444;BME280;7822;48.146;11.576;2023-12-07T09:11:22;95467.44;;;15.21;65.38
15444;BME280;7822;48.146;11.576;2023-12-07T09:13:50;95462.22;;;15.21;65.43
15444;BME280;7822;48.146;11.576;2023-12-07T09:16:17;95464.81;;;15.21;65.37
15444;BME280;7822;48.146;11.576;2023-12-07T09:18:45;95457.16;;;15.20;65.28
15444;BME280;7822;48.146;11.576;2023-12-07T09:21:14;95462.38;;;15.20;65.38
15444;BME280;7822;48.146;11.576;2023-12-07T09:23:43;95461.38;;;15.21;65.59
15444;BME280;7822;48.146;11.576;2023-12-07T09:26:11;95460.44;;;15.22;65.34
15444;BME280;7822;48.146;11.576;2023-12-07T09:28:37;95462.22;;;15.21;65.37
15444;BME280;7822;48.146;11.576;2023-12-07T09:31:06;95461.38;;;15.21;65.36
15444;BME280;7822;48.146;11.576;2023-12-07T09:33:33;95459.59;;;15.21;65.30
15444;BME280;7822;48.146;11.576;2023-12-07T09:36:01;95457.00;;;15.21;65.26
15444;BME280;7822;48.146;11.576;2023-12-07T09:38:31;95459.59;;;15.21;65.50
15444;BME280;7822;48.146;11.576;2023-12-07T09:40:58;95450.09;;;15.20;65.26
15444;BME280;7822;48.146;11.576;2023-12-07T09:43:26;95451.75;;;15.21;65.51
15444;BME280;7822;48.146;11.576;2023-12-07T09:45:54;95453.53;;;15.21;65.27
15444;BME280;7822;48.146;11.576;2023-12-07T09:48:21;95450.94;;;15.21;65.36
15444;BME280;7822;48.146;11.576;2023-12-07T09:50:50;95453.53;;;15.21;65.32
15444;BME280;7822;48.146;11.576;2023-12-07T09:53:19;95449.97;;;15.22;65.34
15444;BME280;7822;48.146;11.576;2023-12-07T09:55:48;95449.16;;;15.21;65.41
15444;BME280;7822;48.146;11.576;2023-12-07T09:58:16;95451.75;;;15.21;65.26
15444;BME280;7822;48.146;11.576;2023-12-07T10:00:57;95449.16;;;15.21;65.13
15444;BME280;7822;48.146;11.576;2023-12-07T10:03:24;95443.09;;;15.21;65.21
15444;BME280;7822;48.146;11.576;2023-12-07T10:05:53;95435.25;;;15.21;65.14
15444;BME280;7822;48.146;11.576;2023-12-07T10:08:25;95433.63;;;15.20;65.23
15444;BME280;7822;48.146;11.576;2023-12-07T10:11:02;95434.78;;;15.35;65.83
15444;BME280;7822;48.146;11.576;2023-12-07T10:13:31;95433.00;;;15.35;66.05
15444;BME280;7822;48.146;11.576;2023-12-07T10:16:05;95432.16;;;15.35;65.95
15444;BME280;7822;48.146;11.576;2023-12-07T10:18:33;95429.66;;;15.33;65.78
15444;BME280;7822;48.146;11.576;2023-12-07T10:21:01;95429.00;;;15.31;65.84
15444;BME280;7822;48.146;11.576;2023-12-07T10:23:29;95437.66;;;15.32;65.87
15444;BME280;7822;48.146;11.576;2023-12-07T10:25:58;95433.56;;;15.29;65.81
15444;BME280;7822;48.146;11.576;2023-12-07T10:28:28;95431.09;;;15.28;65.56
15444;BME280;7822;48.146;11.576;2023-12-07T10:30:56;95430.25;;;15.27;65.45
15444;BME280;7822;48.146;11.576;2023-12-07T10:33:25;95427.81;;;15.26;65.42
15444;BME280;7822;48.146;11.576;2023-12-07T10:35:53;95418.31;;;15.25;65.71
15444;BME280;7822;48.146;11.576;2023-12-07T10:38:20;95423.53;;;15.25;65.53
15444;BME280;7822;48.146;11.576;2023-12-07T10:40:48;95421.75;;;15.25;65.55
15444;BME280;7822;48.146;11.576;2023-12-07T10:43:17;95412.28;;;15.24;65.57
15444;BME280;7822;48.146;11.576;2023-12-07T10:45:47;95414.88;;;15.24;65.30
15444;BME280;7822;48.146;11.576;2023-12-07T10:48:15;95405.41;;;15.23;65.45
15444;BME280;7822;48.146;11.576;2023-12-07T10:50:45;95391.38;;;15.24;65.53
15444;BME280;7822;48.146;11.576;2023-12-07T10:53:15;95395.78;;;15.24;65.55
15444;BME280;7822;48.146;11.576;2023-12-07T10:55:47;95388.75;;;15.24;65.50
15444;BME280;7822;48.146;11.576;2023-12-07T10:58:18;95393.97;;;15.24;65.55
15444;BME280;7822;48.146;11.576;2023-12-07T11:00:48;95393.97;;;15.24;65.40
15444;BME280;7822;48.146;11.576;2023-12-07T11:03:16;95396.59;;;15.24;65.44
15444;BME280;7822;48.146;11.576;2023-12-07T11:05:46;95388.88;;;15.23;65.30
15444;BME280;7822;48.146;11.576;2023-12-07T11:08:15;95389.72;;;15.23;65.40
15444;BME280;7822;48.146;11.576;2023-12-07T11:10:45;95389.56;;;15.25;65.49
15444;BME280;7822;48.146;11.576;2023-12-07T11:13:17;95384.31;;;15.25;65.31
15444;BME280;7822;48.146;11.576;2023-12-07T11:15:46;95385.31;;;15.24;65.27
15444;BME280;7822;48.146;11.576;2023-12-07T11:18:15;95380.09;;;15.24;65.29
15444;BME280;7822;48.146;11.576;2023-12-07T11:20:43;95374.84;;;15.24;65.18
15444;BME280;7822;48.146;11.576;2023-12-07T11:23:12;95380.91;;;15.24;65.36
15444;BME280;7822;48.146;11.576;2023-12-07T11:25:43;95376.50;;;15.25;65.14
15444;BME280;7822;48.146;11.576;2023-12-07T11:28:11;95369.75;;;15.22;65.28
15444;BME280;7822;48.146;11.576;2023-12-07T11:30:41;95364.41;;;15.24;65.09
15444;BME280;7822;48.146;11.576;2023-12-07T11:33:09;95359.19;;;15.24;65.29
15444;BME280;7822;48.146;11.576;2023-12-07T11:38:38;95353.28;;;15.22;65.22
15444;BME280;7822;48.146;11.576;2023-12-07T11:41:05;95346.13;;;15.24;65.28
15444;BME280;7822;48.146;11.576;2023-12-07T11:43:36;95344.44;;;15.23;65.13
15444;BME280;7822;48.146;11.576;2023-12-07T11:46:06;95338.41;;;15.22;65.09
15444;BME280;7822;48.146;11.576;2023-12-07T11:48:34;95344.44;;;15.23;65.22
15444;BME280;7822;48.146;11.576;2023-12-07T11:51:02;95336.63;;;15.23;65.03
15444;BME280;7822;48.146;11.576;2023-12-07T11:53:30;95336.50;;;15.24;64.95
15444;BME280;7822;48.146;11.576;2023-12-07T11:56:00;95338.28;;;15.24;65.20
15444;BME280;7822;48.146;11.576;2023-12-07T11:58:28;95334.00;;;15.23;64.95
15444;BME280;7822;48.146;11.576;2023-12-07T12:00:58;95339.91;;;15.25;65.20
15444;BME280;7822;48.146;11.576;2023-12-07T12:03:26;95327.94;;;15.22;65.07
15444;BME280;7822;48.146;11.576;2023-12-07T12:05:54;95327.94;;;15.22;65.30
15444;BME280;7822;48.146;11.576;2023-12-07T12:08:22;95330.44;;;15.24;65.42
15444;BME280;7822;48.146;11.576;2023-12-07T12:10:50;95321.75;;;15.23;65.20
15444;BME280;7822;48.146;11.576;2023-12-07T12:13:25;95326.03;;;15.24;65.29
15444;BME280;7822;48.146;11.576;2023-12-07T12:15:53;95325.22;;;15.24;64.96
15444;BME280;7822;48.146;11.576;2023-12-07T12:18:22;95325.34;;;15.22;64.63
15444;BME280;7822;48.146;11.576;2023-12-07T12:20:52;95311.31;;;15.23;64.33
15444;BME280;7822;48.146;11.576;2023-12-07T12:23:20;95307.88;;;15.23;63.93
15444;BME280;7822;48.146;11.576;2023-12-07T12:25:48;95307.88;;;15.23;63.90
15444;BME280;7822;48.146;11.576;2023-12-07T12:28:17;95300.03;;;15.23;64.15
15444;BME280;7822;48.146;11.576;2023-12-07T12:30:51;95306.91;;;15.24;64.49
15444;BME280;7822;48.146;11.576;2023-12-07T12:33:19;95305.25;;;15.23;64.46
15444;BME280;7822;48.146;11.576;2023-12-07T12:35:46;95294.81;;;15.23;64.53
15444;BME280;7822;48.146;11.576;2023-12-07T12:38:27;95292.84;;;15.25;64.85
15444;BME280;7822;48.146;11.576;2023-12-07T12:41:07;95293.84;;;15.24;64.85
15444;BME280;7822;48.146;11.576;2023-12-07T12:43:34;95299.91;;;15.24;64.77
15444;BME280;7822;48.146;11.576;2023-12-07T12:46:04;95303.31;;;15.25;64.74
15444;BME280;7822;48.146;11.576;2023-12-07T12:48:32;95305.13;;;15.24;64.95
15444;BME280;7822;48.146;11.576;2023-12-07T12:51:07;95293.69;;;15.25;64.65
15444;BME280;7822;48.146;11.576;2023-12-07T12:53:34;95292.84;;;15.25;64.74
15444;BME280;7822;48.146;11.576;2023-12-07T12:56:03;95291.91;;;15.26;64.88
15444;BME280;7822;48.146;11.576;2023-12-07T12:58:30;95281.44;;;15.26;64.67
15444;BME280;7822;48.146;11.576;2023-12-07T13:00:58;95273.59;;;15.26;64.72
15444;BME280;7822;48.146;11.576;2023-12-07T13:03:33;95267.38;;;15.27;64.76
15444;BME280;7822;48.146;11.576;2023-12-07T13:06:00;95277.84;;;15.27;64.66
15444;BME280;7822;48.146;11.576;2023-12-07T13:08:29;95276.06;;;15.27;64.68